.
WxDataArchive / Data Records for 2008-09-29
2008-09-28 September 2008 2008-09-30

Data Records for Monday, 29 September 2008

Time	Temp	Chill	HIndex	Humid	Dewpt	 Wind 	HiWind	WindDir	Rain 	Barom 
-----	----	-----	------	-----	-----	------	------	-------	-----	----- 
00:00	60.2	60.2	60.2	90	57.3	0	0	---	0.00	30.052 
00:05	60.1	60.1	60.1	90	57.2	0	0	---	0.00	30.051 
00:10	59.9	59.9	59.9	90	57.0	0	1	270	0.00	30.051 
00:15	59.8	59.8	59.8	90	56.9	0	0	---	0.00	30.049 
00:20	59.6	59.6	59.6	91	57.0	0	0	---	0.00	30.048 
00:25	59.6	59.6	59.6	91	57.0	0	0	---	0.00	30.046 
00:30	59.6	59.6	59.6	91	57.0	0	1	270	0.00	30.039 
00:35	59.8	59.8	59.8	92	57.5	0	2	270	0.00	30.036 
00:40	59.8	59.8	59.8	92	57.5	0	2	315	0.00	30.036 
00:45	59.8	59.8	59.8	92	57.5	1	3	135	0.00	30.035 
00:50	59.8	59.8	59.8	92	57.5	0	2	135	0.00	30.035 
00:55	59.8	59.8	59.8	92	57.5	0	2	90	0.00	30.034 
01:00	59.6	59.6	59.6	92	57.3	0	1	90	0.00	30.034 
01:05	59.5	59.5	59.5	92	57.2	0	2	90	0.00	30.034 
01:10	59.3	59.3	59.3	92	57.0	0	2	90	0.00	30.034 
01:15	59.3	59.3	59.3	92	57.0	0	1	90	0.00	30.034 
01:20	59.3	59.3	59.3	92	57.0	0	3	90	0.00	30.034 
01:25	59.3	59.3	59.3	92	57.0	1	6	112	0.00	30.033 
01:30	59.3	59.3	59.3	92	57.0	1	4	112	0.00	30.033 
01:35	59.2	59.2	59.2	93	57.2	1	5	112	0.00	30.035 
01:40	59.2	59.2	59.2	93	57.2	2	4	90	0.00	30.034 
01:45	59.2	59.2	59.2	93	57.2	1	4	90	0.00	30.034 
01:50	59.0	59.0	59.0	93	57.0	1	3	90	0.00	30.034 
01:55	59.0	59.0	59.0	93	57.0	2	5	90	0.00	30.035 
02:00	59.0	59.0	59.0	93	57.0	2	5	112	0.00	30.034 
02:05	58.9	58.9	58.9	93	56.9	1	4	112	0.00	30.032 
02:10	58.9	58.9	58.9	93	56.9	1	3	112	0.00	30.031 
02:15	58.7	58.7	58.7	93	56.7	2	5	68	0.00	30.032 
02:20	58.7	58.7	58.7	93	56.7	1	3	90	0.00	30.031 
02:25	58.7	58.7	58.7	94	57.0	1	2	90	0.00	30.027 
02:30	58.9	58.9	58.9	94	57.2	2	5	90	0.00	30.025 
02:35	59.0	59.0	59.0	94	57.3	1	3	112	0.00	30.023 
02:40	59.0	59.0	59.0	94	57.3	1	3	112	0.00	30.020 
02:45	59.0	59.0	59.0	94	57.3	2	4	90	0.00	30.019 
02:50	59.2	59.2	59.2	93	57.2	2	6	90	0.00	30.017 
02:55	59.2	59.2	59.2	93	57.2	2	7	90	0.00	30.016 
03:00	59.0	59.0	59.0	93	57.0	2	5	90	0.00	30.013 
03:05	59.0	59.0	59.0	93	57.0	2	5	90	0.00	30.016 
03:10	59.0	59.0	59.0	93	57.0	2	5	90	0.00	30.014 
03:15	58.9	58.9	58.9	93	56.9	2	5	90	0.00	30.011 
03:20	58.9	58.9	58.9	93	56.9	1	4	90	0.00	30.012 
03:25	58.7	58.7	58.7	93	56.7	1	3	90	0.00	30.015 
03:30	58.7	58.7	58.7	93	56.7	1	4	90	0.00	30.008 
03:35	58.6	58.6	58.6	93	56.6	1	4	112	0.00	30.007 
03:40	58.4	58.4	58.4	93	56.4	1	3	90	0.00	30.007 
03:45	58.4	58.4	58.4	93	56.4	2	5	68	0.00	30.007 
03:50	58.4	58.4	58.4	93	56.4	1	4	90	0.00	30.008 
03:55	58.3	58.3	58.3	94	56.6	1	3	90	0.00	30.008 
04:00	58.3	58.3	58.3	94	56.6	1	3	90	0.00	30.006 
04:05	58.3	58.3	58.3	94	56.6	1	3	90	0.00	30.006 
04:10	58.3	58.3	58.3	94	56.6	1	3	90	0.00	30.005 
04:15	58.3	58.3	58.3	94	56.6	1	4	112	0.00	30.005 
04:20	58.1	58.1	58.1	94	56.4	1	2	112	0.00	30.007 
04:25	58.1	58.1	58.1	94	56.4	1	4	112	0.00	30.007 
04:30	58.1	58.1	58.1	94	56.4	2	5	90	0.00	30.007 
04:35	58.1	58.1	58.1	94	56.4	1	5	68	0.00	30.006 
04:40	58.1	58.1	58.1	94	56.4	1	4	90	0.00	30.007 
04:45	58.1	58.1	58.1	94	56.4	1	4	90	0.00	30.007 
04:50	58.0	58.0	58.0	94	56.3	1	3	90	0.00	30.006 
04:55	58.0	58.0	58.0	94	56.3	1	3	90	0.00	30.006 
05:00	57.8	57.8	57.8	94	56.1	1	3	90	0.00	30.007 
05:05	57.8	57.8	57.8	94	56.1	1	4	90	0.00	30.005 
05:10	57.8	57.8	57.8	94	56.1	1	4	90	0.00	30.002 
05:15	57.8	57.8	57.8	94	56.1	1	3	90	0.00	29.995 
05:20	57.8	57.8	57.8	95	56.4	1	4	90	0.00	29.996 
05:25	57.8	57.8	57.8	95	56.4	0	3	90	0.00	30.002 
05:30	57.8	57.8	57.8	95	56.4	1	5	68	0.00	29.999 
05:35	57.8	57.8	57.8	95	56.4	0	2	68	0.00	30.000 
05:40	57.8	57.8	57.8	95	56.4	1	3	68	0.00	29.995 
05:45	57.8	57.8	57.8	95	56.4	1	2	68	0.00	29.998 
05:50	57.8	57.8	57.8	95	56.4	1	4	90	0.00	30.001 
05:55	57.8	57.8	57.8	95	56.4	1	2	90	0.00	30.006 
06:00	57.8	57.8	57.8	95	56.4	1	5	90	0.00	30.006 
06:05	57.8	57.8	57.8	95	56.4	1	3	90	0.00	30.011 
06:10	57.8	57.8	57.8	95	56.4	1	3	90	0.00	30.012 
06:15	58.0	58.0	58.0	95	56.6	1	4	90	0.00	30.012 
06:20	58.0	58.0	58.0	95	56.6	1	3	90	0.00	30.014 
06:25	58.0	58.0	58.0	95	56.6	1	3	90	0.00	30.015 
06:30	58.0	58.0	58.0	95	56.6	1	3	90	0.00	30.015 
06:35	58.0	58.0	58.0	95	56.6	1	4	90	0.00	30.015 
06:40	58.0	58.0	58.0	95	56.6	1	2	90	0.00	30.017 
06:45	58.0	58.0	58.0	95	56.6	1	4	68	0.00	30.020 
06:50	58.1	58.1	58.1	95	56.7	0	2	68	0.00	30.021 
06:55	58.1	58.1	58.1	95	56.7	1	5	90	0.00	30.018 
07:00	58.1	58.1	58.1	95	56.7	1	4	112	0.00	30.022 
07:05	58.1	58.1	58.1	95	56.7	1	4	112	0.00	30.022 
07:10	58.1	58.1	58.1	95	56.7	1	3	90	0.00	30.021 
07:15	58.0	58.0	58.0	95	56.6	2	5	90	0.00	30.019 
07:20	58.1	58.1	58.1	95	56.7	1	3	90	0.00	30.019 
07:25	58.1	58.1	58.1	95	56.7	1	4	90	0.00	30.018 
07:30	58.1	58.1	58.1	95	56.7	2	4	68	0.00	30.019 
07:35	58.1	58.1	58.1	95	56.7	1	4	68	0.00	30.019 
07:40	58.3	58.3	58.3	95	56.9	2	4	90	0.00	30.018 
07:45	58.3	58.3	58.3	95	56.9	1	5	90	0.00	30.018 
07:50	58.3	58.3	58.3	95	56.9	1	4	90	0.00	30.017 
07:55	58.3	58.3	58.3	95	56.9	2	4	90	0.00	30.017 
08:00	58.4	58.4	58.4	95	57.0	1	4	68	0.00	30.015 
08:05	58.4	58.4	58.4	95	57.0	1	3	68	0.00	30.016 
08:10	58.4	58.4	58.4	95	57.0	2	6	90	0.00	30.015 
08:15	58.4	58.4	58.4	95	57.0	2	5	90	0.00	30.013 
08:20	58.4	58.4	58.4	95	57.0	2	4	90	0.00	30.011 
08:25	58.6	58.6	58.6	95	57.2	2	6	90	0.00	30.006 
08:30	58.6	58.6	58.6	95	57.2	2	5	90	0.00	30.000 
08:35	58.7	58.7	58.7	94	57.0	2	5	112	0.00	29.999 
08:40	58.7	58.7	58.7	94	57.0	2	7	112	0.00	29.999 
08:45	58.7	58.7	58.7	94	57.0	2	5	112	0.00	29.999 
08:50	58.9	58.9	58.9	93	56.9	1	4	112	0.00	29.999 
08:55	59.2	59.2	59.2	93	57.2	1	4	90	0.00	30.000 
09:00	59.2	59.2	59.2	92	56.9	2	5	90	0.00	30.003 
09:05	59.5	59.5	59.5	92	57.2	1	2	112	0.00	30.005 
09:10	59.8	59.8	59.8	92	57.5	1	4	112	0.00	30.006 
09:15	59.9	59.9	59.9	91	57.3	1	3	68	0.00	30.006 
09:20	60.1	60.1	60.1	90	57.2	1	4	90	0.00	30.004 
09:25	60.4	60.4	60.4	89	57.1	2	4	90	0.00	30.002 
09:30	60.5	60.5	60.5	89	57.2	2	5	68	0.00	29.998 
09:35	61.0	61.0	61.0	88	57.4	1	3	90	0.00	29.997 
09:40	61.6	61.6	61.6	87	57.7	1	3	90	0.00	29.997 
09:45	62.1	62.1	62.1	85	57.5	2	4	90	0.00	29.997 
09:50	62.6	62.6	62.6	85	58.0	2	5	90	0.00	29.996 
09:55	62.9	62.9	62.9	84	58.0	2	5	90	0.00	29.995 
10:00	63.2	63.2	63.2	82	57.6	2	3	90	0.00	29.988 
10:05	63.4	63.4	63.4	82	57.8	2	4	90	0.00	29.987 
10:10	63.5	63.5	63.5	82	57.9	1	5	90	0.00	29.985 
10:15	63.9	63.9	63.9	82	58.3	1	3	90	0.00	29.984 
10:20	64.2	64.2	64.2	81	58.2	2	4	90	0.00	29.982 
10:25	64.3	64.3	64.3	80	58.0	2	3	68	0.00	29.981 
10:30	64.7	64.7	64.7	80	58.4	1	3	68	0.00	29.980 
10:35	65.2	65.2	65.2	78	58.2	0	2	68	0.00	29.980 
10:40	65.6	65.6	65.6	77	58.2	1	3	90	0.00	29.978 
10:45	66.1	66.1	66.1	77	58.7	1	4	90	0.00	29.976 
10:50	66.8	66.8	66.8	76	59.0	1	4	90	0.00	29.973 
10:55	67.3	67.3	67.3	73	58.3	0	2	135	0.00	29.972 
11:00	67.8	67.8	67.8	71	58.0	0	1	135	0.00	29.972 
11:05	68.1	68.1	68.1	69	57.5	0	2	135	0.00	29.968 
11:10	68.6	68.6	68.6	67	57.2	0	2	112	0.00	29.965 
11:15	69.1	69.1	69.1	67	57.7	0	1	112	0.00	29.964 
11:20	69.6	69.6	69.6	65	57.3	1	3	112	0.00	29.962 
11:25	70.3	70.3	70.3	67	58.8	0	2	112	0.00	29.959 
11:30	70.6	70.6	70.6	63	57.4	1	3	112	0.00	29.956 
11:35	70.4	70.4	70.4	63	57.2	0	2	112	0.00	29.954 
11:40	70.6	70.6	70.6	63	57.4	0	1	112	0.00	29.949 
11:45	71.3	71.3	71.3	62	57.6	0	2	112	0.00	29.948 
11:50	71.8	71.8	71.8	60	57.2	2	4	112	0.00	29.945 
11:55	72.1	72.1	72.1	63	58.8	0	1	112	0.00	29.943 
12:00	72.7	72.7	72.7	62	58.9	0	1	112	0.00	29.939 
12:05	72.8	72.8	72.8	58	57.1	1	2	112	0.00	29.935 
12:10	73.2	73.2	73.2	60	58.5	0	2	112	0.00	29.930 
12:15	73.3	73.3	73.3	58	57.6	0	1	112	0.00	29.928 
12:20	73.7	73.7	73.7	59	58.5	0	1	112	0.00	29.925 
12:25	74.2	74.2	74.2	57	58.0	0	3	112	0.00	29.918 
12:30	74.6	74.6	74.6	58	58.8	1	5	112	0.00	29.913 
12:35	74.6	74.6	74.6	58	58.8	0	1	112	0.00	29.911 
12:40	74.7	74.7	74.7	58	58.9	0	1	112	0.00	29.909 
12:45	74.6	74.6	74.6	57	58.3	2	4	112	0.00	29.903 
12:50	74.6	74.6	74.6	57	58.3	0	2	90	0.00	29.898 
12:55	75.1	75.1	77.5	59	59.8	0	2	90	0.00	29.896 
13:00	75.4	75.4	77.7	55	58.1	0	2	90	0.00	29.893 
13:05	75.8	75.8	78.0	54	57.9	1	3	90	0.00	29.888 
13:10	76.1	76.1	78.1	55	58.7	0	2	90	0.00	29.882 
13:15	76.3	76.3	78.3	56	59.4	0	1	90	0.00	29.881 
13:20	76.1	76.1	78.1	53	57.7	0	1	90	0.00	29.879 
13:25	76.1	76.1	78.1	54	58.2	0	1	90	0.00	29.870 
13:30	76.1	76.1	78.1	54	58.2	0	2	90	0.00	29.865 
13:35	76.1	76.1	78.1	55	58.7	0	1	90	0.00	29.861 
13:40	76.1	76.1	78.1	57	59.7	0	1	90	0.00	29.859 
13:45	76.1	76.1	78.1	55	58.7	0	1	90	0.00	29.858 
13:50	76.0	76.0	78.1	55	58.6	0	1	90	0.00	29.857 
13:55	76.0	76.0	78.1	54	58.1	0	0	---	0.00	29.857 
14:00	75.8	75.8	78.0	55	58.5	0	0	---	0.00	29.854 
14:05	75.8	75.8	78.0	55	58.5	0	1	90	0.00	29.849 
14:10	75.3	75.3	77.7	56	58.5	0	0	---	0.00	29.847 
14:15	74.7	74.7	74.7	57	58.4	0	1	90	0.00	29.849 
14:20	72.7	72.7	72.7	65	60.2	4	18	270	0.02	29.886 
14:25	66.9	66.9	66.9	76	59.1	3	10	270	0.00	29.900 
14:30	65.2	65.2	65.2	82	59.6	0	3	68	0.00	29.859 
14:35	64.2	64.2	64.2	84	59.3	0	0	---	0.00	29.858 
14:40	63.5	63.5	63.5	86	59.2	0	1	68	0.00	29.859 
14:45	63.4	63.4	63.4	89	60.1	0	1	68	0.00	29.861 
14:50	63.1	63.1	63.1	89	59.8	1	3	68	0.00	29.861 
14:55	63.1	63.1	63.1	90	60.1	1	3	248	0.00	29.859 
15:00	63.4	63.4	63.4	91	60.7	1	3	248	0.00	29.856 
15:05	64.0	64.0	64.0	92	61.6	1	2	248	0.00	29.855 
15:10	64.7	64.7	64.7	92	62.3	1	2	248	0.00	29.852 
15:15	65.3	65.3	65.3	92	62.9	0	2	248	0.00	29.847 
15:20	65.8	65.8	65.8	91	63.1	1	5	248	0.00	29.844 
15:25	66.0	66.0	66.0	90	63.0	1	3	270	0.00	29.842 
15:30	66.3	66.3	66.3	90	63.3	0	2	225	0.00	29.840 
15:35	66.6	66.6	66.6	90	63.6	0	1	225	0.00	29.839 
15:40	66.8	66.8	66.8	90	63.8	0	1	225	0.00	29.839 
15:45	67.1	67.1	67.1	89	63.7	0	2	225	0.00	29.837 
15:50	67.3	67.3	67.3	88	63.6	1	3	248	0.00	29.837 
15:55	67.6	67.6	67.6	87	63.6	1	3	248	0.00	29.835 
16:00	67.8	67.8	67.8	86	63.5	1	3	248	0.00	29.833 
16:05	67.9	67.9	67.9	86	63.5	0	2	248	0.00	29.835 
16:10	68.1	68.1	68.1	86	63.7	0	1	248	0.00	29.835 
16:15	68.1	68.1	68.1	86	63.7	0	3	248	0.00	29.838 
16:20	68.1	68.1	68.1	85	63.4	0	2	248	0.00	29.837 
16:25	68.1	68.1	68.1	85	63.4	0	1	248	0.00	29.838 
16:30	68.1	68.1	68.1	85	63.4	0	3	248	0.00	29.839 
16:35	68.1	68.1	68.1	85	63.4	0	2	248	0.00	29.838 
16:40	68.1	68.1	68.1	86	63.7	0	1	248	0.00	29.838 
16:45	68.1	68.1	68.1	85	63.4	0	2	248	0.00	29.838 
16:50	68.1	68.1	68.1	85	63.4	0	1	248	0.00	29.837 
16:55	68.1	68.1	68.1	85	63.4	0	1	248	0.00	29.833 
17:00	68.3	68.3	68.3	85	63.6	0	2	248	0.00	29.831 
17:05	68.8	68.8	68.8	85	64.1	0	2	248	0.00	29.834 
17:10	68.9	68.9	68.9	83	63.5	0	1	248	0.00	29.832 
17:15	69.1	69.1	69.1	81	63.0	0	1	248	0.00	29.834 
17:20	69.1	69.1	69.1	79	62.3	0	2	248	0.00	29.837 
17:25	68.9	68.9	68.9	75	60.6	0	1	248	0.00	29.838 
17:30	68.9	68.9	68.9	72	59.5	1	3	248	0.00	29.837 
17:35	68.9	68.9	68.9	69	58.3	0	2	248	0.00	29.838 
17:40	68.8	68.8	68.8	69	58.2	0	1	248	0.00	29.836 
17:45	68.8	68.8	68.8	68	57.8	0	1	248	0.00	29.834 
17:50	68.8	68.8	68.8	68	57.8	0	1	248	0.00	29.836 
17:55	68.8	68.8	68.8	69	58.2	0	1	248	0.00	29.835 
18:00	68.4	68.4	68.4	69	57.8	0	1	248	0.00	29.833 
18:05	68.3	68.3	68.3	69	57.7	0	1	248	0.00	29.833 
18:10	68.1	68.1	68.1	69	57.5	0	0	---	0.00	29.832 
18:15	67.9	67.9	67.9	71	58.1	0	1	248	0.00	29.833 
18:20	67.6	67.6	67.6	72	58.2	0	0	---	0.00	29.834 
18:25	67.3	67.3	67.3	72	58.0	0	0	---	0.00	29.833 
18:30	67.1	67.1	67.1	72	57.8	0	0	---	0.00	29.837 
18:35	66.9	66.9	66.9	73	58.0	0	0	---	0.00	29.838 
18:40	66.8	66.8	66.8	74	58.2	0	0	---	0.00	29.840 
18:45	66.6	66.6	66.6	73	57.7	0	1	248	0.00	29.840 
18:50	66.8	66.8	66.8	73	57.9	0	1	248	0.00	29.839 
18:55	66.9	66.9	66.9	72	57.6	0	1	248	0.00	29.838 
19:00	67.1	67.1	67.1	73	58.1	0	1	248	0.00	29.837 
19:05	67.1	67.1	67.1	73	58.1	0	3	248	0.00	29.837 
19:10	67.4	67.4	67.4	72	58.1	1	2	292	0.00	29.839 
19:15	67.6	67.6	67.6	71	57.9	1	3	292	0.00	29.837 
19:20	67.6	67.6	67.6	71	57.9	2	6	292	0.00	29.835 
19:25	67.8	67.8	67.8	70	57.6	1	4	292	0.00	29.835 
19:30	67.8	67.8	67.8	70	57.6	1	3	292	0.00	29.834 
19:35	67.6	67.6	67.6	71	57.9	1	3	292	0.00	29.835 
19:40	67.6	67.6	67.6	71	57.9	1	3	270	0.00	29.835 
19:45	67.4	67.4	67.4	71	57.7	1	4	270	0.00	29.836 
19:50	67.4	67.4	67.4	71	57.7	1	5	270	0.00	29.839 
19:55	67.3	67.3	67.3	72	58.0	2	6	270	0.00	29.840 
20:00	66.4	66.4	66.4	73	57.5	2	5	292	0.00	29.843 
20:05	65.5	65.5	65.5	75	57.4	2	4	315	0.00	29.846 
20:10	65.0	65.0	65.0	76	57.2	1	3	315	0.00	29.846 
20:15	64.5	64.5	64.5	78	57.5	0	2	292	0.00	29.849 
20:20	64.2	64.2	64.2	79	57.5	0	2	292	0.00	29.851 
20:25	63.9	63.9	63.9	80	57.6	0	2	292	0.00	29.851 
20:30	63.5	63.5	63.5	81	57.6	0	2	292	0.00	29.856 
20:35	63.4	63.4	63.4	82	57.8	0	1	292	0.00	29.855 
20:40	63.1	63.1	63.1	83	57.8	0	1	292	0.00	29.856 
20:45	62.9	62.9	62.9	83	57.7	0	2	292	0.00	29.857 
20:50	62.7	62.7	62.7	84	57.8	0	3	315	0.00	29.857 
20:55	62.7	62.7	62.7	84	57.8	0	2	315	0.00	29.858 
21:00	62.6	62.6	62.6	84	57.7	1	3	248	0.00	29.860 
21:05	62.6	62.6	62.6	84	57.7	2	6	248	0.00	29.858 
21:10	62.4	62.4	62.4	85	57.8	2	3	270	0.00	29.860 
21:15	62.3	62.3	62.3	85	57.7	1	3	270	0.00	29.859 
21:20	62.3	62.3	62.3	85	57.7	1	4	315	0.00	29.858 
21:25	62.1	62.1	62.1	85	57.5	1	5	292	0.00	29.857 
21:30	62.0	62.0	62.0	85	57.4	1	5	315	0.00	29.858 
21:35	62.0	62.0	62.0	85	57.4	1	5	292	0.00	29.856 
21:40	61.8	61.8	61.8	84	56.9	1	3	338	0.00	29.857 
21:45	61.6	61.6	61.6	84	56.7	1	3	315	0.00	29.855 
21:50	61.3	61.3	61.3	85	56.7	0	2	315	0.00	29.856 
21:55	61.2	61.2	61.2	85	56.6	0	1	315	0.00	29.856 
22:00	60.9	60.9	60.9	85	56.4	1	3	270	0.00	29.858 
22:05	60.9	60.9	60.9	85	56.4	0	1	270	0.00	29.855 
22:10	60.7	60.7	60.7	85	56.2	0	3	270	0.00	29.854 
22:15	60.5	60.5	60.5	85	56.0	1	4	292	0.00	29.853 
22:20	60.5	60.5	60.5	84	55.6	1	3	315	0.00	29.851 
22:25	60.4	60.4	60.4	84	55.5	0	2	315	0.00	29.851 
22:30	60.4	60.4	60.4	83	55.2	1	2	315	0.00	29.852 
22:35	60.4	60.4	60.4	83	55.2	0	1	315	0.00	29.851 
22:40	60.4	60.4	60.4	83	55.2	0	2	292	0.00	29.853 
22:45	60.4	60.4	60.4	83	55.2	0	2	292	0.00	29.855 
22:50	60.2	60.2	60.2	84	55.3	0	1	292	0.00	29.855 
22:55	60.2	60.2	60.2	84	55.3	0	1	292	0.00	29.852 
23:00	60.1	60.1	60.1	84	55.2	0	1	292	0.00	29.852 
23:05	60.1	60.1	60.1	84	55.2	1	5	292	0.00	29.849 
23:10	60.1	60.1	60.1	85	55.6	1	2	248	0.00	29.847 
23:15	59.9	59.9	59.9	85	55.4	0	3	292	0.00	29.839 
23:20	59.9	59.9	59.9	85	55.4	0	2	292	0.00	29.846 
23:25	59.8	59.8	59.8	86	55.6	0	3	270	0.00	29.849 
23:30	59.6	59.6	59.6	87	55.7	0	2	270	0.00	29.850 
23:35	59.5	59.5	59.5	87	55.6	1	2	315	0.00	29.849 
23:40	59.3	59.3	59.3	87	55.4	0	2	315	0.00	29.847 
23:45	59.3	59.3	59.3	87	55.4	0	1	315	0.00	29.851 
23:50	59.2	59.2	59.2	87	55.3	0	2	315	0.00	29.853 
23:55	59.0	59.0	59.0	88	55.4	0	1	315	0.00	29.853 

CoCoRaHS
IN-AL-39
A2 Web Hosting
Creative Commons License
GoDaddy
Look for:

loaded 2017-10-19 14:42:36 • last modified 2010-11-18 10:43:29
Privacy PolicyDisclaimer
• wx.awcolley.com is powered by PmWiki v.2002016 •
• all content (unless otherwise noted) © 2017 A W Colley